Garden City, Texas
Current Conditions -  °F | °C
As of 3:35 PM on Friday 24 Oct 2014 (Local Time) from KBPG Reporting Station
Clear Clear  
Wind Chill: 85°   Ceiling: Unl
Heat Index: 85°   Visibility: 10mi
Dew Point: 49°   Wind: 8mph
Humidity: 28%   Direction: 200°SSW
Pressure: 30.13"   Gusts: NA
Location:  31.86°N, 101.48°W
Report Text: KBPG 242035Z AUTO 20007KT 10SM CLR 30/09 A3013 RMK AO2 T02960094
Loading
Personal Weather Stations






























Interactive Weather Map
Tropical Storm Tracking
New forecast layout! Learn more

10-Day Weather Forecast

Advertisements
Track Severe Weather on mobile